Terminal Aerodrome Forecast
Issued by NWS Lake Charles, LA

Home | Current Version | Previous Version | Text Only | Print | Product List | Glossary On
Versions: 1 2 3 4 5 6 7 8 9 10 11 12 13 14 15 16 17
000
FTUS44 KLCH 302332
TAFAEX
TAF
KAEX 302332Z 3100/3124 21004KT P6SM FEW050
     FM310600 VRB03KT 3SM BR FEW008
      TEMPO 3109/3113 1/2SM FG BKN002
     FM311500 23006KT P6SM SCT025 BKN035
     FM311900 22012G18KT P6SM BKN045=

USA.gov is the U.S. government's official web portal to all federal, state and local government web resources and services.